Time;durP1;ratioP1;P1;durP2;ratioP2;P2;SDS_P1;SDS_P2;PMS_P1;PMS_P2;Temp;Humidity;BMP_temperature;BMP_pressure;BME280_temperature;BME280_humidity;BME280_pressure;Samples;Min_cycle;Max_cycle;Signal;HPM_P1;HPM_P2
2022/09/09 00:00:46;;;;;;;0.67;0.67;;;;;14.20;95703.00;;;;5114531;28;20194;-66
2022/09/09 00:03:19;;;;;;;0.60;0.60;;;;;14.10;95697.00;;;;5114305;28;20304;-66
2022/09/09 00:05:57;;;;;;;0.50;0.50;;;;;14.20;95699.00;;;;5114263;28;20217;-66
2022/09/09 00:08:35;;;;;;;0.60;0.60;;;;;14.30;95693.00;;;;5114227;28;20194;-66
2022/09/09 00:11:05;;;;;;;0.50;0.50;;;;;14.30;95696.00;;;;5114074;28;20222;-65
2022/09/09 00:13:37;;;;;;;0.60;0.60;;;;;14.10;95695.00;;;;5114234;28;20221;-66
2022/09/09 00:16:16;;;;;;;0.60;0.60;;;;;13.90;95684.00;;;;5114177;28;20246;-66
2022/09/09 00:18:53;;;;;;;0.77;0.77;;;;;14.00;95682.00;;;;5114279;28;20199;-66
2022/09/09 00:21:27;;;;;;;0.70;0.70;;;;;13.90;95684.00;;;;5114605;28;20205;-68
2022/09/09 00:23:55;;;;;;;0.70;0.70;;;;;13.90;95681.00;;;;5096664;28;20241;-65
2022/09/09 00:26:33;;;;;;;0.60;0.60;;;;;14.00;95685.00;;;;5117978;28;20194;-67
2022/09/09 00:29:09;;;;;;;1.30;1.30;;;;;14.10;95678.00;;;;5114946;28;20217;-65
2022/09/09 00:31:37;;;;;;;0.53;0.53;;;;;14.20;95678.00;;;;5114000;28;20254;-65
2022/09/09 00:34:12;;;;;;;0.50;0.50;;;;;14.30;95668.00;;;;5095770;28;20222;-65
2022/09/09 00:36:40;;;;;;;0.60;0.60;;;;;14.40;95675.00;;;;5113795;28;20185;-65
2022/09/09 00:39:13;;;;;;;0.60;0.60;;;;;14.50;95685.00;;;;5113641;28;20241;-66
2022/09/09 00:41:55;;;;;;;0.73;0.73;;;;;14.50;95686.00;;;;5113800;28;20208;-66
2022/09/09 00:44:31;;;;;;;0.50;0.50;;;;;14.40;95685.00;;;;5113742;28;20193;-66
2022/09/09 00:47:25;;;;;;;0.83;0.83;;;;;14.40;95678.00;;;;5113596;28;20210;-65
2022/09/09 00:50:01;;;;;;;0.60;0.60;;;;;14.50;95681.00;;;;5113637;28;20194;-64
2022/09/09 00:52:37;;;;;;;0.70;0.70;;;;;14.50;95678.00;;;;5113711;28;20277;-65
2022/09/09 00:55:13;;;;;;;0.70;0.70;;;;;14.50;95678.00;;;;5113699;28;20205;-66
2022/09/09 00:57:41;;;;;;;0.90;0.90;;;;;14.50;95675.00;;;;5096067;28;20198;-65
2022/09/09 01:00:20;;;;;;;0.70;0.70;;;;;14.50;95678.00;;;;5099252;28;20190;-66
2022/09/09 01:03:02;;;;;;;0.60;0.60;;;;;14.50;95687.00;;;;5117024;28;20235;-66
2022/09/09 01:05:38;;;;;;;0.70;0.70;;;;;14.40;95691.00;;;;5117111;28;20281;-65
2022/09/09 01:08:16;;;;;;;0.60;0.60;;;;;14.40;95690.00;;;;5117168;28;20282;-66
2022/09/09 01:10:50;;;;;;;0.50;0.50;;;;;14.40;95687.00;;;;5117030;28;20218;-66
2022/09/09 01:13:22;;;;;;;0.60;0.60;;;;;14.30;95692.00;;;;5116804;28;20229;-65
2022/09/09 01:15:53;;;;;;;0.57;0.57;;;;;14.30;95706.00;;;;5116924;28;20197;-66
2022/09/09 01:18:27;;;;;;;3.20;1.80;;;;;14.30;95702.00;;;;5116966;28;20222;-66
2022/09/09 01:21:02;;;;;;;0.60;0.60;;;;;14.10;95702.00;;;;5116832;28;20174;-65
2022/09/09 01:24:05;;;;;;;0.50;0.50;;;;;14.30;95706.00;;;;5098750;28;20233;-66
2022/09/09 01:26:37;;;;;;;3.97;0.70;;;;;14.10;95715.00;;;;5100785;28;20653;-66
2022/09/09 01:29:08;;;;;;;3.17;0.97;;;;;14.10;95724.00;;;;5116715;28;20271;-65
2022/09/09 01:31:38;;;;;;;0.80;0.80;;;;;14.00;95737.00;;;;5116695;28;20214;-66
2022/09/09 01:34:11;;;;;;;0.50;0.50;;;;;14.10;95718.00;;;;5116589;28;20194;-66
2022/09/09 01:36:46;;;;;;;0.50;0.50;;;;;14.40;95716.00;;;;5098848;28;20178;-66
2022/09/09 01:39:15;;;;;;;0.60;0.60;;;;;14.30;95711.00;;;;5116689;28;20256;-66
2022/09/09 01:41:45;;;;;;;0.67;0.67;;;;;14.20;95699.00;;;;5116499;28;20245;-66
2022/09/09 01:44:12;;;;;;;0.60;0.60;;;;;14.50;95699.00;;;;5116420;28;20221;-66
2022/09/09 01:46:39;;;;;;;0.60;0.60;;;;;14.50;95699.00;;;;5116409;28;20222;-70
2022/09/09 01:49:08;;;;;;;0.60;0.60;;;;;14.50;95701.00;;;;5116570;28;20252;-66
2022/09/09 01:51:38;;;;;;;0.50;0.50;;;;;14.40;95702.00;;;;5116441;28;20218;-69
2022/09/09 01:54:06;;;;;;;0.60;0.60;;;;;14.30;95692.00;;;;5098536;28;20201;-68
2022/09/09 01:56:43;;;;;;;0.77;0.77;;;;;14.40;95685.00;;;;5116434;28;20207;-68
2022/09/09 01:59:27;;;;;;;0.47;0.47;;;;;14.60;95684.00;;;;5116877;28;20551;-70
2022/09/09 02:02:08;;;;;;;1.00;1.00;;;;;14.40;95679.00;;;;5116412;28;20202;-66
2022/09/09 02:04:41;;;;;;;0.70;0.70;;;;;14.30;95691.00;;;;5116378;28;20186;-68
2022/09/09 02:07:24;;;;;;;0.50;0.50;;;;;14.40;95691.00;;;;5116344;28;20206;-66
2022/09/09 02:10:01;;;;;;;0.53;0.53;;;;;14.40;95703.00;;;;5115736;28;20194;-66
2022/09/09 02:12:31;;;;;;;0.60;0.60;;;;;14.40;95708.00;;;;5116023;28;20200;-66
2022/09/09 02:15:07;;;;;;;0.57;0.57;;;;;14.30;95708.00;;;;5115953;28;20289;-66
2022/09/09 02:17:36;;;;;;;0.63;0.63;;;;;14.20;95715.00;;;;5116148;28;20190;-66
2022/09/09 02:20:07;;;;;;;0.60;0.60;;;;;14.10;95710.00;;;;5115958;28;20229;-65
2022/09/09 02:22:36;;;;;;;0.57;0.57;;;;;14.10;95703.00;;;;5097873;28;20545;-66
2022/09/09 02:25:05;;;;;;;0.50;0.50;;;;;14.10;95703.00;;;;5097757;28;20294;-66
2022/09/09 02:27:32;;;;;;;0.53;0.53;;;;;14.10;95710.00;;;;5115862;28;20259;-66
2022/09/09 02:30:02;;;;;;;0.97;0.97;;;;;14.10;95700.00;;;;5097926;28;20267;-66
2022/09/09 02:32:33;;;;;;;0.50;0.50;;;;;14.10;95700.00;;;;5115717;28;20205;-66
2022/09/09 02:35:05;;;;;;;0.50;0.50;;;;;14.10;95696.00;;;;5115763;28;20345;-66
2022/09/09 02:37:36;;;;;;;0.70;0.70;;;;;14.20;95695.00;;;;5115670;28;20224;-66
2022/09/09 02:40:04;;;;;;;0.87;0.87;;;;;14.20;95685.00;;;;5115728;28;20191;-66
2022/09/09 02:42:31;;;;;;;4.03;0.83;;;;;14.20;95678.00;;;;5115543;28;20286;-66
2022/09/09 02:44:58;;;;;;;0.50;0.50;;;;;14.20;95675.00;;;;5115580;28;20194;-66
2022/09/09 02:47:33;;;;;;;0.60;0.60;;;;;14.20;95670.00;;;;5115399;28;20271;-65
2022/09/09 02:50:11;;;;;;;0.50;0.50;;;;;14.10;95674.00;;;;5115447;28;20540;-66
2022/09/09 02:52:50;;;;;;;0.43;0.43;;;;;14.20;95669.00;;;;5115423;28;20223;-65
2022/09/09 02:55:24;;;;;;;0.50;0.50;;;;;14.20;95674.00;;;;5115323;28;20629;-65
2022/09/09 02:57:52;;;;;;;0.57;0.57;;;;;14.00;95676.00;;;;5115345;28;20282;-65
2022/09/09 03:00:24;;;;;;;0.60;0.60;;;;;13.80;95672.00;;;;5115339;28;20253;-65
2022/09/09 03:02:53;;;;;;;0.50;0.50;;;;;13.80;95661.00;;;;5115279;28;20226;-65
2022/09/09 03:05:20;;;;;;;0.50;0.50;;;;;13.80;95661.00;;;;5115179;28;20210;-63
2022/09/09 03:07:47;;;;;;;0.60;0.60;;;;;13.80;95665.00;;;;5115184;28;20212;-66
2022/09/09 03:10:13;;;;;;;0.40;0.40;;;;;13.70;95666.00;;;;5114996;28;20296;-68
2022/09/09 03:12:40;;;;;;;0.50;0.50;;;;;13.60;95659.00;;;;5115101;28;20194;-66
2022/09/09 03:15:09;;;;;;;0.50;0.50;;;;;13.70;95657.00;;;;5116924;28;20197;-68
2022/09/09 03:17:36;;;;;;;0.40;0.40;;;;;13.60;95653.00;;;;5115029;28;20277;-66
2022/09/09 03:20:07;;;;;;;0.77;0.77;;;;;13.60;95657.00;;;;5114435;28;20194;-66
2022/09/09 03:22:34;;;;;;;0.50;0.50;;;;;13.60;95664.00;;;;5114728;28;20221;-68
2022/09/09 03:25:02;;;;;;;0.50;0.50;;;;;13.60;95672.00;;;;5115029;28;20197;-66
2022/09/09 03:27:29;;;;;;;0.70;0.70;;;;;13.40;95678.00;;;;5115028;28;20225;-69
2022/09/09 03:29:57;;;;;;;0.83;0.83;;;;;13.30;95673.00;;;;5114886;28;20648;-68
2022/09/09 03:32:27;;;;;;;1.27;0.90;;;;;13.30;95670.00;;;;5114601;28;20229;-63
2022/09/09 03:34:54;;;;;;;0.50;0.50;;;;;13.20;95684.00;;;;5114864;28;20195;-66
2022/09/09 03:37:22;;;;;;;0.40;0.40;;;;;13.10;95687.00;;;;5114780;28;20200;-66
2022/09/09 03:39:49;;;;;;;0.50;0.50;;;;;13.00;95684.00;;;;5114700;28;20281;-67
2022/09/09 03:42:18;;;;;;;0.60;0.60;;;;;13.10;95688.00;;;;5114759;28;20197;-66
2022/09/09 03:44:48;;;;;;;1.60;0.73;;;;;13.10;95680.00;;;;5114634;28;20205;-66
2022/09/09 03:47:19;;;;;;;0.80;0.80;;;;;13.30;95673.00;;;;5114723;28;20648;-66
2022/09/09 03:49:45;;;;;;;1.53;1.00;;;;;13.50;95669.00;;;;5114450;28;20221;-64
2022/09/09 03:52:12;;;;;;;0.50;0.50;;;;;13.40;95672.00;;;;5114479;28;20206;-68
2022/09/09 03:54:42;;;;;;;0.60;0.60;;;;;13.40;95675.00;;;;5114353;28;20217;-66
2022/09/09 03:57:09;;;;;;;0.50;0.50;;;;;13.30;95679.00;;;;5114658;28;20209;-66
2022/09/09 03:59:37;;;;;;;0.80;0.80;;;;;13.20;95679.00;;;;5114333;28;20225;-66
2022/09/09 04:02:05;;;;;;;0.50;0.50;;;;;13.20;95683.00;;;;5114351;28;20190;-67
2022/09/09 04:04:32;;;;;;;0.73;0.73;;;;;13.30;95675.00;;;;5114347;28;20258;-66
2022/09/09 04:06:59;;;;;;;0.60;0.60;;;;;13.20;95674.00;;;;5114237;28;20691;-66
2022/09/09 04:09:25;;;;;;;0.60;0.60;;;;;13.30;95674.00;;;;5114212;28;20586;-64
2022/09/09 04:11:53;;;;;;;0.53;0.53;;;;;13.30;95677.00;;;;5096281;28;20221;-66
2022/09/09 04:14:20;;;;;;;0.60;0.60;;;;;13.10;95683.00;;;;5114141;28;20220;-64
2022/09/09 04:16:47;;;;;;;0.70;0.70;;;;;13.00;95665.00;;;;5114029;28;20200;-64
2022/09/09 04:19:14;;;;;;;0.50;0.50;;;;;13.20;95684.00;;;;5114173;28;20198;-68
2022/09/09 04:21:43;;;;;;;5.10;0.97;;;;;13.20;95682.00;;;;5114086;28;20729;-66
2022/09/09 04:24:10;;;;;;;0.50;0.50;;;;;13.20;95686.00;;;;5114126;28;20222;-66
2022/09/09 04:26:37;;;;;;;0.60;0.60;;;;;13.10;95687.00;;;;5114142;28;20212;-68
2022/09/09 04:29:06;;;;;;;0.70;0.70;;;;;13.00;95689.00;;;;5113958;28;20313;-68
2022/09/09 04:31:33;;;;;;;0.73;0.73;;;;;13.00;95689.00;;;;5114048;28;20527;-67
2022/09/09 04:34:04;;;;;;;0.50;0.50;;;;;13.00;95688.00;;;;5113871;28;20232;-66
2022/09/09 04:36:32;;;;;;;0.60;0.60;;;;;13.00;95688.00;;;;5113903;28;20198;-66
2022/09/09 04:38:59;;;;;;;0.60;0.60;;;;;12.90;95685.00;;;;5113898;28;20233;-66
2022/09/09 04:41:25;;;;;;;0.43;0.43;;;;;13.00;95684.00;;;;5095782;28;20202;-66
2022/09/09 04:43:53;;;;;;;0.60;0.60;;;;;13.10;95687.00;;;;5113610;28;20226;-66
2022/09/09 04:46:22;;;;;;;0.60;0.60;;;;;13.10;95688.00;;;;5113803;28;20301;-66
2022/09/09 04:48:49;;;;;;;1.00;1.00;;;;;13.10;95698.00;;;;5113756;28;20213;-66
2022/09/09 04:51:17;;;;;;;0.50;0.50;;;;;13.10;95700.00;;;;5113647;28;20217;-66
2022/09/09 04:53:43;;;;;;;1.13;1.13;;;;;13.10;95699.00;;;;5113657;28;20229;-66
2022/09/09 04:56:12;;;;;;;0.60;0.60;;;;;13.10;95703.00;;;;5113669;28;20229;-68
2022/09/09 04:58:42;;;;;;;0.60;0.60;;;;;13.10;95702.00;;;;5113587;28;20216;-68
2022/09/09 05:01:11;;;;;;;1.30;1.30;;;;;13.10;95695.00;;;;5113656;28;20669;-68
2022/09/09 05:03:38;;;;;;;0.83;0.83;;;;;13.10;95703.00;;;;5113334;28;20614;-65
2022/09/09 05:06:08;;;;;;;0.50;0.50;;;;;13.10;95701.00;;;;5113424;28;20213;-66
2022/09/09 05:08:35;;;;;;;0.50;0.50;;;;;13.10;95702.00;;;;5113407;28;20198;-64
2022/09/09 05:11:02;;;;;;;1.00;1.00;;;;;13.10;95700.00;;;;5113353;28;20218;-66
2022/09/09 05:13:31;;;;;;;0.60;0.60;;;;;13.10;95705.00;;;;5113480;28;20202;-66
2022/09/09 05:16:00;;;;;;;0.90;0.90;;;;;13.30;95704.00;;;;5113264;28;20233;-66
2022/09/09 05:18:27;;;;;;;0.50;0.50;;;;;13.20;95709.00;;;;5113212;28;20289;-66
2022/09/09 05:21:00;;;;;;;0.60;0.60;;;;;13.20;95719.00;;;;5113130;28;20198;-66
2022/09/09 05:23:27;;;;;;;0.60;0.60;;;;;13.20;95721.00;;;;5113564;28;20210;-66
2022/09/09 05:25:58;;;;;;;1.57;1.47;;;;;13.20;95719.00;;;;5113150;28;20657;-66
2022/09/09 05:28:25;;;;;;;0.70;0.70;;;;;13.10;95722.00;;;;5113158;28;20680;-66
2022/09/09 05:31:00;;;;;;;0.60;0.60;;;;;13.20;95728.00;;;;5112957;28;20198;-66
2022/09/09 05:33:27;;;;;;;0.80;0.80;;;;;13.20;95733.00;;;;5113259;28;20224;-66
2022/09/09 05:35:58;;;;;;;1.17;1.07;;;;;13.20;95724.00;;;;5113073;28;20194;-66
2022/09/09 05:38:25;;;;;;;0.50;0.50;;;;;13.20;95730.00;;;;5113156;28;20238;-66
2022/09/09 05:40:52;;;;;;;0.57;0.57;;;;;13.20;95730.00;;;;5113086;28;20213;-66
2022/09/09 05:43:20;;;;;;;0.60;0.60;;;;;13.30;95726.00;;;;5112965;28;20694;-66
2022/09/09 05:45:47;;;;;;;0.63;0.63;;;;;13.40;95723.00;;;;5116533;28;20201;-66
2022/09/09 05:48:15;;;;;;;0.57;0.57;;;;;13.40;95724.00;;;;5116610;28;20201;-66
2022/09/09 05:50:42;;;;;;;0.70;0.70;;;;;13.50;95721.00;;;;5116516;28;20632;-66
2022/09/09 05:53:10;;;;;;;0.40;0.40;;;;;13.50;95720.00;;;;5116437;28;20629;-62
2022/09/09 05:55:37;;;;;;;0.60;0.60;;;;;13.50;95721.00;;;;5116355;28;20227;-62
2022/09/09 05:58:04;;;;;;;0.77;0.77;;;;;13.60;95711.00;;;;5116413;28;20194;-62
2022/09/09 06:00:31;;;;;;;0.60;0.60;;;;;13.70;95719.00;;;;5116605;28;20498;-63
2022/09/09 06:02:58;;;;;;;0.57;0.57;;;;;13.70;95722.00;;;;5116150;28;20232;-65
2022/09/09 06:05:28;;;;;;;0.50;0.50;;;;;13.80;95716.00;;;;5116210;28;20209;-63
2022/09/09 06:07:55;;;;;;;1.10;1.07;;;;;13.80;95721.00;;;;5116077;28;20249;-66
2022/09/09 06:10:23;;;;;;;0.70;0.70;;;;;13.90;95729.00;;;;5116104;28;20193;-74
2022/09/09 06:12:52;;;;;;;0.67;0.67;;;;;14.00;95727.00;;;;5115972;28;20235;-65
2022/09/09 06:15:19;;;;;;;1.13;1.13;;;;;14.10;95723.00;;;;5115948;28;20528;-71
2022/09/09 06:17:46;;;;;;;0.50;0.50;;;;;14.30;95721.00;;;;5115772;28;20218;-67
2022/09/09 06:20:15;;;;;;;1.20;1.03;;;;;14.40;95727.00;;;;5115925;28;20198;-67
2022/09/09 06:22:46;;;;;;;0.60;0.60;;;;;14.50;95720.00;;;;5115790;28;20224;-67
2022/09/09 06:25:13;;;;;;;0.50;0.50;;;;;14.50;95723.00;;;;5116010;28;20222;-69
2022/09/09 06:27:41;;;;;;;0.70;0.70;;;;;14.60;95727.00;;;;5116020;28;20186;-69
2022/09/09 06:30:10;;;;;;;0.93;0.93;;;;;14.60;95721.00;;;;5097875;28;20589;-66
2022/09/09 06:32:37;;;;;;;1.00;1.00;;;;;14.60;95718.00;;;;5115821;28;20190;-67
2022/09/09 06:35:07;;;;;;;0.60;0.60;;;;;14.70;95721.00;;;;5115630;28;20250;-67
2022/09/09 06:37:34;;;;;;;0.63;0.63;;;;;14.70;95721.00;;;;5115686;28;20205;-67
2022/09/09 06:40:01;;;;;;;0.70;0.70;;;;;14.70;95737.00;;;;5116372;28;20213;-67
2022/09/09 06:42:28;;;;;;;0.50;0.50;;;;;14.70;95731.00;;;;5116961;28;20273;-67
2022/09/09 06:44:55;;;;;;;0.60;0.60;;;;;14.80;95733.00;;;;5115631;28;20277;-69
2022/09/09 06:47:22;;;;;;;0.57;0.57;;;;;14.80;95729.00;;;;5115513;28;20224;-69
2022/09/09 06:49:49;;;;;;;0.60;0.60;;;;;14.90;95723.00;;;;5115657;28;20200;-67
2022/09/09 06:52:19;;;;;;;0.50;0.50;;;;;14.90;95732.00;;;;5115559;28;20551;-66
2022/09/09 06:54:48;;;;;;;0.60;0.60;;;;;15.00;95731.00;;;;5097184;28;20266;-66
2022/09/09 06:57:15;;;;;;;0.70;0.70;;;;;15.10;95725.00;;;;5114653;28;20629;-69
2022/09/09 06:59:42;;;;;;;0.60;0.60;;;;;15.20;95728.00;;;;5115520;28;20224;-67
2022/09/09 07:02:10;;;;;;;0.60;0.60;;;;;15.30;95723.00;;;;5115387;28;20186;-67
2022/09/09 07:04:37;;;;;;;0.50;0.50;;;;;15.50;95719.00;;;;5115410;28;20217;-67
2022/09/09 07:07:04;;;;;;;0.50;0.50;;;;;15.70;95734.00;;;;5115569;28;20202;-68
2022/09/09 07:09:31;;;;;;;0.50;0.50;;;;;15.70;95729.00;;;;5115221;28;20225;-67
2022/09/09 07:11:59;;;;;;;0.50;0.50;;;;;15.70;95737.00;;;;5115226;28;20629;-65
2022/09/09 07:14:26;;;;;;;0.50;0.50;;;;;15.90;95728.00;;;;5114796;28;20741;-61
2022/09/09 07:16:53;;;;;;;0.57;0.57;;;;;16.10;95722.00;;;;5097049;28;20230;-65
2022/09/09 07:19:21;;;;;;;0.40;0.40;;;;;16.30;95728.00;;;;5115041;28;20281;-62
2022/09/09 07:21:47;;;;;;;0.67;0.67;;;;;16.20;95727.00;;;;5114902;28;20525;-64
2022/09/09 07:24:15;;;;;;;0.57;0.57;;;;;16.10;95733.00;;;;5114889;28;20237;-65
2022/09/09 07:26:42;;;;;;;0.67;0.67;;;;;15.80;95726.00;;;;5114836;28;20649;-65
2022/09/09 07:29:10;;;;;;;0.60;0.60;;;;;15.70;95730.00;;;;5114835;28;20261;-65
2022/09/09 07:31:39;;;;;;;0.43;0.43;;;;;15.90;95739.00;;;;5114733;28;20202;-66
2022/09/09 07:34:08;;;;;;;0.60;0.60;;;;;16.10;95731.00;;;;5114940;28;20365;-66
2022/09/09 07:36:38;;;;;;;3.60;1.57;;;;;16.00;95731.00;;;;5114543;28;20247;-67
2022/09/09 07:39:07;;;;;;;0.70;0.70;;;;;16.00;95741.00;;;;5096642;28;20677;-66
2022/09/09 07:41:36;;;;;;;0.60;0.60;;;;;16.10;95740.00;;;;5096808;28;20283;-66
2022/09/09 07:44:06;;;;;;;0.63;0.63;;;;;16.20;95736.00;;;;5114560;28;20238;-66
2022/09/09 07:46:34;;;;;;;0.80;0.80;;;;;16.30;95731.00;;;;5114985;28;20194;-64
2022/09/09 07:49:03;;;;;;;0.50;0.50;;;;;16.00;95734.00;;;;5115263;28;20236;-67
2022/09/09 07:51:32;;;;;;;0.70;0.70;;;;;16.30;95732.00;;;;5114493;28;20210;-65
2022/09/09 07:54:02;;;;;;;1.43;1.40;;;;;16.50;95734.00;;;;5114474;28;20768;-66
2022/09/09 07:56:30;;;;;;;0.50;0.50;;;;;16.30;95749.00;;;;5114303;28;20687;-66
2022/09/09 07:58:58;;;;;;;1.07;1.07;;;;;16.40;95765.00;;;;5096453;28;20238;-66
2022/09/09 08:01:30;;;;;;;0.57;0.57;;;;;16.40;95756.00;;;;5114470;28;20217;-66
2022/09/09 08:03:59;;;;;;;0.40;0.40;;;;;16.30;95755.00;;;;5114395;28;20230;-66
2022/09/09 08:06:27;;;;;;;0.50;0.50;;;;;16.40;95760.00;;;;5113740;28;20231;-66
2022/09/09 08:08:54;;;;;;;0.70;0.70;;;;;16.50;95753.00;;;;5114343;28;20198;-66
2022/09/09 08:11:26;;;;;;;0.97;0.97;;;;;16.50;95753.00;;;;5114241;28;20209;-68
2022/09/09 08:13:56;;;;;;;0.97;0.97;;;;;16.50;95750.00;;;;5114109;28;20274;-66
2022/09/09 08:16:25;;;;;;;0.50;0.50;;;;;17.00;95755.00;;;;5114063;28;20657;-63
2022/09/09 08:18:53;;;;;;;0.50;0.50;;;;;16.80;95751.00;;;;5114184;28;20663;-65
2022/09/09 08:21:23;;;;;;;0.63;0.63;;;;;17.10;95746.00;;;;5096182;28;20212;-66
2022/09/09 08:23:53;;;;;;;0.60;0.60;;;;;17.20;95752.00;;;;5113810;28;20705;-66
2022/09/09 08:26:21;;;;;;;1.07;0.97;;;;;17.30;95754.00;;;;5113901;28;20177;-67
2022/09/09 08:28:51;;;;;;;0.50;0.50;;;;;17.60;95751.00;;;;5114178;28;20685;-68
2022/09/09 08:31:20;;;;;;;0.50;0.50;;;;;17.80;95752.00;;;;5113777;28;20630;-67
2022/09/09 08:33:48;;;;;;;0.60;0.60;;;;;17.50;95754.00;;;;5095886;28;20229;-66
2022/09/09 08:36:17;;;;;;;0.43;0.43;;;;;17.20;95758.00;;;;5096560;28;20226;-66
2022/09/09 08:38:47;;;;;;;0.60;0.60;;;;;16.90;95769.00;;;;5114417;28;20285;-66
2022/09/09 08:41:50;;;;;;;0.50;0.50;;;;;17.10;95764.00;;;;5113728;28;20244;-67
2022/09/09 08:44:27;;;;;;;8.63;0.80;;;;;17.00;95767.00;;;;5113587;28;20656;-67
2022/09/09 08:47:00;;;;;;;0.50;0.50;;;;;16.80;95775.00;;;;5095981;28;20603;-64
2022/09/09 08:49:49;;;;;;;0.57;0.57;;;;;17.10;95775.00;;;;5114315;28;20194;-67
2022/09/09 08:52:22;;;;;;;0.83;0.83;;;;;17.50;95775.00;;;;5114114;28;20247;-67
2022/09/09 08:54:50;;;;;;;0.50;0.50;;;;;17.80;95770.00;;;;5113632;28;20266;-65
2022/09/09 08:57:26;;;;;;;0.50;0.50;;;;;17.50;95771.00;;;;5113418;28;20222;-66
2022/09/09 08:59:55;;;;;;;0.43;0.43;;;;;17.50;95770.00;;;;5113494;28;20608;-67
2022/09/09 09:02:30;;;;;;;0.70;0.70;;;;;17.80;95767.00;;;;5113498;28;20182;-66
2022/09/09 09:05:12;;;;;;;0.60;0.60;;;;;17.90;95778.00;;;;5113395;28;20724;-67
2022/09/09 09:07:54;;;;;;;0.60;0.60;;;;;18.00;95776.00;;;;5113719;28;20198;-67
2022/09/09 09:10:35;;;;;;;0.73;0.73;;;;;18.40;95763.00;;;;5113901;28;20532;-67
2022/09/09 09:13:03;;;;;;;0.50;0.50;;;;;18.40;95769.00;;;;5114001;28;20682;-67
2022/09/09 09:15:36;;;;;;;0.50;0.50;;;;;18.10;95748.00;;;;5113896;28;20212;-67
2022/09/09 09:18:03;;;;;;;0.50;0.50;;;;;18.60;95747.00;;;;5114262;28;20178;-67
2022/09/09 09:20:41;;;;;;;0.40;0.40;;;;;18.60;95740.00;;;;5116968;28;20281;-67
2022/09/09 09:23:19;;;;;;;0.70;0.70;;;;;19.20;95740.00;;;;5117003;28;20229;-65
2022/09/09 09:25:46;;;;;;;6.80;0.93;;;;;19.40;95742.00;;;;5117034;28;20186;-68
2022/09/09 09:28:17;;;;;;;0.47;0.47;;;;;19.60;95741.00;;;;5116818;28;20222;-67
2022/09/09 09:30:52;;;;;;;0.60;0.60;;;;;19.20;95739.00;;;;5116809;28;20189;-66
2022/09/09 09:33:24;;;;;;;0.40;0.40;;;;;19.30;95735.00;;;;5116692;28;20300;-67
2022/09/09 09:35:54;;;;;;;0.50;0.50;;;;;18.70;95732.00;;;;5098905;28;20539;-66
2022/09/09 09:38:23;;;;;;;0.60;0.60;;;;;18.80;95736.00;;;;5117149;28;20214;-66
2022/09/09 09:40:57;;;;;;;0.67;0.67;;;;;19.00;95725.00;;;;5116697;28;20198;-67
2022/09/09 09:43:27;;;;;;;0.50;0.50;;;;;19.40;95724.00;;;;5116394;28;20226;-67
2022/09/09 09:45:58;;;;;;;0.67;0.67;;;;;19.20;95733.00;;;;5116429;28;20251;-67
2022/09/09 09:48:26;;;;;;;0.60;0.60;;;;;19.00;95728.00;;;;5116817;28;20289;-67
2022/09/09 09:50:57;;;;;;;0.50;0.50;;;;;18.50;95751.00;;;;5116447;28;20297;-69
2022/09/09 09:53:28;;;;;;;0.40;0.40;;;;;18.40;95734.00;;;;5116341;28;20214;-67
2022/09/09 09:55:58;;;;;;;0.70;0.70;;;;;18.30;95719.00;;;;5098511;28;20194;-66
2022/09/09 09:58:28;;;;;;;0.80;0.80;;;;;18.70;95706.00;;;;5116314;28;20192;-64
2022/09/09 10:00:55;;;;;;;0.50;0.50;;;;;18.80;95715.00;;;;5116433;28;20222;-65
2022/09/09 10:03:26;;;;;;;0.40;0.40;;;;;19.10;95715.00;;;;5116064;28;20320;-66
2022/09/09 10:05:53;;;;;;;0.40;0.40;;;;;19.40;95711.00;;;;5116211;28;20194;-66
2022/09/09 10:08:21;;;;;;;0.43;0.43;;;;;19.60;95710.00;;;;5116057;28;20298;-67
2022/09/09 10:11:03;;;;;;;0.50;0.50;;;;;19.80;95727.00;;;;5116221;28;20209;-67
2022/09/09 10:13:38;;;;;;;0.40;0.40;;;;;19.70;95718.00;;;;5116004;28;20240;-66
2022/09/09 10:16:20;;;;;;;0.50;0.50;;;;;19.80;95726.00;;;;5116234;28;20313;-66
2022/09/09 10:18:58;;;;;;;0.67;0.67;;;;;19.40;95736.00;;;;5098381;28;20578;-66
2022/09/09 10:22:06;;;;;;;0.50;0.50;;;;;19.10;95735.00;;;;5116223;28;20276;-64
2022/09/09 10:25:11;;;;;;;0.40;0.40;;;;;18.90;95745.00;;;;5112734;28;20260;-66
2022/09/09 10:27:49;;;;;;;0.40;0.40;;;;;18.60;95758.00;;;;5115974;28;20586;-66
2022/09/09 10:30:18;;;;;;;0.50;0.50;;;;;18.00;95755.00;;;;5115646;28;20269;-67
2022/09/09 10:32:55;;;;;;;0.40;0.40;;;;;17.80;95742.00;;;;5115882;28;20197;-66
2022/09/09 10:35:33;;;;;;;0.40;0.40;;;;;18.10;95758.00;;;;5115769;28;20202;-66
2022/09/09 10:38:16;;;;;;;0.50;0.50;;;;;18.00;95769.00;;;;5115746;28;20547;-66
2022/09/09 10:41:01;;;;;;;0.50;0.50;;;;;17.90;95772.00;;;;5115749;28;20242;-66
2022/09/09 10:43:47;;;;;;;0.60;0.60;;;;;17.80;95788.00;;;;5115412;28;20606;-66
2022/09/09 10:46:21;;;;;;;0.30;0.30;;;;;17.50;95779.00;;;;5115631;28;20726;-66
2022/09/09 10:49:05;;;;;;;0.40;0.40;;;;;17.20;95785.00;;;;5115423;28;20725;-65
2022/09/09 10:51:49;;;;;;;0.60;0.60;;;;;16.70;95806.00;;;;5115609;28;20217;-66
2022/09/09 10:54:36;;;;;;;0.57;0.57;;;;;16.40;95818.00;;;;5115423;28;20232;-66
2022/09/09 10:57:09;;;;;;;0.50;0.50;;;;;16.10;95826.00;;;;5115441;28;20188;-66
2022/09/09 10:59:41;;;;;;;0.50;0.50;;;;;15.90;95829.00;;;;5115342;28;20237;-66
2022/09/09 11:02:16;;;;;;;0.50;0.50;;;;;15.90;95831.00;;;;5115366;28;20205;-66
2022/09/09 11:04:50;;;;;;;0.63;0.63;;;;;15.60;95835.00;;;;5115460;28;20232;-66
2022/09/09 11:07:27;;;;;;;0.40;0.40;;;;;15.50;95823.00;;;;5115332;28;20221;-66
2022/09/09 11:10:02;;;;;;;0.60;0.60;;;;;15.80;95834.00;;;;5097153;28;20278;-66
2022/09/09 11:12:31;;;;;;;0.83;0.83;;;;;15.80;95832.00;;;;5115150;28;20232;-67
2022/09/09 11:15:04;;;;;;;0.50;0.50;;;;;15.80;95823.00;;;;5115257;28;20254;-67
2022/09/09 11:17:37;;;;;;;0.47;0.47;;;;;15.80;95815.00;;;;5097077;28;20221;-67
2022/09/09 11:20:11;;;;;;;0.60;0.60;;;;;16.20;95801.00;;;;5115101;28;20202;-67
2022/09/09 11:22:43;;;;;;;0.50;0.50;;;;;16.50;95792.00;;;;5115149;28;20535;-69
2022/09/09 11:25:16;;;;;;;0.50;0.50;;;;;17.10;95763.00;;;;5115033;28;20213;-67
2022/09/09 11:27:54;;;;;;;0.50;0.50;;;;;17.80;95785.00;;;;5115102;28;20190;-67
2022/09/09 11:30:22;;;;;;;0.50;0.50;;;;;18.10;95783.00;;;;5115237;28;20202;-67
2022/09/09 11:33:21;;;;;;;0.50;0.50;;;;;18.00;95777.00;;;;5114995;28;20638;-67
2022/09/09 11:36:10;;;;;;;0.40;0.40;;;;;17.80;95773.00;;;;5114890;28;20221;-67
2022/09/09 11:38:45;;;;;;;0.50;0.50;;;;;17.90;95771.00;;;;5114979;28;20198;-67
2022/09/09 11:41:13;;;;;;;0.50;0.50;;;;;17.80;95760.00;;;;5114076;28;20224;-68
2022/09/09 11:43:44;;;;;;;0.47;0.47;;;;;18.00;95759.00;;;;5114344;28;20249;-69
2022/09/09 11:46:12;;;;;;;0.80;0.80;;;;;18.60;95758.00;;;;5114602;28;20300;-69
2022/09/09 11:48:43;;;;;;;0.50;0.50;;;;;18.30;95731.00;;;;5114700;28;20271;-67
2022/09/09 11:51:12;;;;;;;2.23;0.63;;;;;18.30;95740.00;;;;5096985;28;20186;-67
2022/09/09 11:53:53;;;;;;;0.37;0.37;;;;;18.80;95731.00;;;;5114618;28;20685;-69
2022/09/09 11:56:28;;;;;;;0.63;0.63;;;;;19.40;95727.00;;;;5114601;28;20197;-67
2022/09/09 11:58:58;;;;;;;0.40;0.40;;;;;19.40;95734.00;;;;5114479;28;20194;-67
2022/09/09 12:01:37;;;;;;;0.47;0.47;;;;;18.80;95724.00;;;;5114460;28;20216;-67
2022/09/09 12:04:14;;;;;;;0.50;0.50;;;;;19.30;95737.00;;;;5096416;28;20229;-67
2022/09/09 12:06:49;;;;;;;0.40;0.40;;;;;19.60;95734.00;;;;5114322;28;20641;-67
2022/09/09 12:09:25;;;;;;;0.40;0.40;;;;;19.10;95735.00;;;;5114220;28;20250;-66
2022/09/09 12:11:53;;;;;;;0.40;0.40;;;;;19.30;95731.00;;;;5114366;28;20186;-67
2022/09/09 12:14:35;;;;;;;0.60;0.60;;;;;19.20;95729.00;;;;5114484;28;20233;-69
2022/09/09 12:17:18;;;;;;;0.40;0.40;;;;;19.40;95724.00;;;;5114164;28;20301;-66
2022/09/09 12:19:48;;;;;;;0.50;0.50;;;;;19.70;95719.00;;;;5096049;28;20198;-64
2022/09/09 12:22:27;;;;;;;0.50;0.50;;;;;20.20;95708.00;;;;5114109;28;20277;-67
2022/09/09 12:25:01;;;;;;;0.40;0.40;;;;;19.70;95716.00;;;;5114075;28;20289;-67
2022/09/09 12:27:34;;;;;;;0.70;0.70;;;;;19.50;95709.00;;;;5114196;28;20311;-68
2022/09/09 12:30:09;;;;;;;0.40;0.40;;;;;19.40;95705.00;;;;5114513;28;20204;-69
2022/09/09 12:32:39;;;;;;;0.43;0.43;;;;;19.60;95728.00;;;;5114046;28;20294;-69
2022/09/09 12:35:12;;;;;;;1.40;1.27;;;;;19.40;95726.00;;;;5096195;28;20202;-68
2022/09/09 12:37:41;;;;;;;0.80;0.80;;;;;19.40;95699.00;;;;5113877;28;20248;-67
2022/09/09 12:40:21;;;;;;;0.40;0.40;;;;;20.10;95716.00;;;;5113960;28;20350;-67